Grande Portogallo — IBZW — position and weather

sailwx.info

Track history (hours):
 
Tides and Currents Weather Stations Pressure Air Temp Water Temp Dewpoint Dewpoint Depression Visibility Wind Speed Wind Dir Waves Ship Positions

Grande Portogallo

Last reported at 2014-Jul-31 18:31 UTC. Time now 2014-Aug-01 03:55 UTC.
Position N 36°28' E 014°41'.

Length 176 m; draft 7.8 m.

Type: Cargo ship. MMSI: 247065500.

Date/timePositionNaut miles runAvg speedWind from/ knotsBaromVisibWave heightAir tempDewpointWater temp
2014-Jul-31 18:31N 36°28' E 014°41'1616.5
2014-Jul-31 17:33N 36°29' E 014°21'1716.6
2014-Jul-31 16:33N 36°33' E 014°01'1716.7
2014-Jul-31 15:33N 36°37' E 013°41'1716.6
2014-Jul-31 14:33N 36°41' E 013°21'1616.4
2014-Jul-31 13:33N 36°45' E 013°01'224 5.9
2014-Jul-29 23:22N 40°20' E 014°23'1215.2
2014-Jul-29 22:34N 40°29' E 014°34'5 0.5
2014-Jul-29 11:33N 40°32' E 014°28'1515.1
2014-Jul-29 10:33N 40°29' E 014°08'1716.7
2014-Jul-29 09:33N 40°39' E 013°50'1716.7
2014-Jul-29 08:33N 40°49' E 013°33'18210.0
2014-Jul-28 14:16N 42°51' E 010°31'1115.3
2014-Jul-28 13:33N 43°00' E 010°24'1616.0
2014-Jul-28 12:33N 43°16' E 010°17'1615.6
2014-Jul-28 11:33N 43°31' E 010°13'6 5.5
2014-Jul-28 10:32N 43°35' E 010°19'0 0.0
2014-Jul-28 09:32N 43°35' E 010°19'0 0.0
2014-Jul-28 08:29N 43°35' E 010°19'0 0.0
2014-Jul-28 07:32N 43°35' E 010°19'0 0.0
2014-Jul-28 06:32N 43°35' E 010°19'0 0.0
2014-Jul-28 05:29N 43°35' E 010°19'0 0.0
2014-Jul-28 04:32N 43°35' E 010°19'0 0.0
2014-Jul-28 03:32N 43°35' E 010°19'0 0.0
2014-Jul-28 02:33N 43°35' E 010°19'0 0.0
2014-Jul-28 01:32N 43°35' E 010°19'0 0.0
2014-Jul-28 00:32N 43°35' E 010°19'0 0.0
2014-Jul-27 23:32N 43°35' E 010°19'0 0.0
2014-Jul-27 22:32N 43°35' E 010°19'0 0.0
2014-Jul-27 21:32N 43°35' E 010°19'0 0.0
2014-Jul-27 20:32N 43°35' E 010°19'0 0.0
2014-Jul-27 19:32N 43°35' E 010°19'0 0.0
2014-Jul-27 18:32N 43°35' E 010°19'0 0.0
2014-Jul-27 17:32N 43°35' E 010°19'0 0.0
2014-Jul-27 16:33N 43°35' E 010°19'5 4.5
2014-Jul-27 15:33N 43°31' E 010°15'1515.2
2014-Jul-27 14:34N 43°21' E 009°60'1616.3
2014-Jul-27 13:33N 43°17' E 009°38'1615.7
2014-Jul-27 12:34N 43°15' E 009°17'2015.6
2014-Jul-27 11:16N 43°11' E 008°49'6215.8
2014-Jul-27 07:21N 43°00' E 007°26'1316.0
2014-Jul-27 06:34N 42°58' E 007°09'1716.7
2014-Jul-27 05:33N 42°56' E 006°46'1616.3
2014-Jul-27 04:34N 42°53' E 006°24'1616.4
2014-Jul-27 03:33N 42°53' E 006°02'1616.4
2014-Jul-27 02:33N 42°56' E 005°40'1716.0
2014-Jul-27 01:31N 43°02' E 005°19'1515.5
2014-Jul-27 00:33N 43°11' E 005°02'1313.3
2014-Jul-26 23:33N 43°23' E 004°55'3 3.1
2014-Jul-26 22:28N 43°24' E 004°51'0 0.0
2014-Jul-26 21:28N 43°24' E 004°51'0 0.0
2014-Jul-26 20:28N 43°24' E 004°51'0 0.0
2014-Jul-26 19:31N 43°24' E 004°51'0 0.0
2014-Jul-26 18:28N 43°24' E 004°51'0 0.0
2014-Jul-26 17:28N 43°24' E 004°51'0 0.0
2014-Jul-26 16:31N 43°24' E 004°51'3 3.0
2014-Jul-26 15:34N 43°24' E 004°55'1010.2
2014-Jul-26 14:33N 43°15' E 005°01'1414.3
2014-Jul-26 13:33N 43°02' E 004°52'3616.3
2014-Jul-26 11:19N 42°36' E 004°18'3115.4
2014-Jul-26 09:20N 42°12' E 003°51'1114.7
2014-Jul-26 08:33N 42°04' E 003°40'1514.8
2014-Jul-26 07:32N 41°53' E 003°27'1717.1
2014-Jul-26 06:33N 41°41' E 003°11'1716.9
2014-Jul-26 05:33N 41°30' E 002°53'1616.3
2014-Jul-26 04:34N 41°20' E 002°37'1716.6
2014-Jul-26 03:33N 41°09' E 002°20'1615.7
2014-Jul-26 02:33N 40°59' E 002°03'1615.8
2014-Jul-26 01:33N 40°49' E 001°48'1615.9
2014-Jul-26 00:33N 40°39' E 001°32'1615.9
2014-Jul-25 23:33N 40°28' E 001°16'1615.7
2014-Jul-25 22:33N 40°18' E 001°00'1615.7
2014-Jul-25 21:33N 40°08' E 000°44'1615.6
2014-Jul-25 20:33N 39°57' E 000°30'3615.8
2014-Jul-25 18:18N 39°33' W 000°04'1215.7
2014-Jul-25 17:34N 39°26' W 000°16'2 2.0
2014-Jul-25 16:31N 39°26' W 000°18'0 0.0
2014-Jul-25 15:31N 39°27' W 000°18'0 0.0
2014-Jul-25 14:31N 39°27' W 000°18'0 0.0
2014-Jul-25 13:31N 39°26' W 000°18'0 0.0
2014-Jul-25 12:31N 39°26' W 000°18'0 0.0
2014-Jul-25 11:31N 39°26' W 000°18'0 0.0
2014-Jul-25 10:34N 39°26' W 000°18'8311.5
2014-Jul-25 03:17N 38°04' W 000°03'1114.6
2014-Jul-25 02:33N 37°56' W 000°11'1514.9
2014-Jul-25 01:33N 37°43' W 000°22'1514.7
2014-Jul-25 00:34N 37°31' W 000°33'1615.1
2014-Jul-24 23:32N 37°21' W 000°47'1515.2
2014-Jul-24 22:33N 37°11' W 001°01'1615.4
2014-Jul-24 21:33N 37°01' W 001°15'1515.3
2014-Jul-24 20:32N 36°50' W 001°30'5015.2
2014-Jul-24 17:15N 36°21' W 002°20'14616.8
2014-Jul-24 08:32N 35°59' W 005°19'8216.4
2014-Jul-24 03:33N 36°04' W 006°60'2215.9
2014-Jul-24 02:11N 36°10' W 007°26'1016.4
2014-Jul-24 01:33N 36°12' W 007°38'1616.1
2014-Jul-24 00:33N 36°17' W 007°57'1616.2
2014-Jul-23 23:33N 36°21' W 008°17'1616.0
2014-Jul-23 22:33N 36°25' W 008°36'1615.9
2014-Jul-23 21:33N 36°29' W 008°55'1615.9
2014-Jul-23 20:33N 36°33' W 009°14'1615.7
2014-Jul-23 19:33N 36°43' W 009°29'1615.6
2014-Jul-23 18:33N 36°58' W 009°35'1615.9
2014-Jul-23 17:33N 37°13' W 009°30'1716.3
2014-Jul-23 16:32N 37°29' W 009°24'1616.3
2014-Jul-23 15:33N 37°45' W 009°17'1616.0
2014-Jul-23 14:33N 37°60' W 009°11'1616.4
2014-Jul-23 13:33N 38°15' W 009°05'1414.1
2014-Jul-23 12:33N 38°28' W 008°57'5 4.4
2014-Jul-23 11:28N 38°31' W 008°52'0 0.0
2014-Jul-23 10:31N 38°31' W 008°52'0 0.0
2014-Jul-23 09:31N 38°31' W 008°52'0 0.0
2014-Jul-23 08:22N 38°31' W 008°52'0 0.0
2014-Jul-23 07:31N 38°31' W 008°52'0 0.0
2014-Jul-23 06:31N 38°31' W 008°52'0 0.0
2014-Jul-23 05:28N 38°31' W 008°52'0 0.0
2014-Jul-23 04:31N 38°31' W 008°52'0 0.0
2014-Jul-23 03:25N 38°31' W 008°52'2 1.9
2014-Jul-23 02:33N 38°31' W 008°54'10 9.7
2014-Jul-23 01:33N 38°24' W 009°03'1010.4
2014-Jul-23 00:33N 38°20' W 009°15'1515.3
2014-Jul-22 23:33N 38°26' W 009°33'1515.3
2014-Jul-22 22:33N 38°31' W 009°52'1514.2
2014-Jul-22 21:30N 38°41' W 010°06'1615.9
2014-Jul-22 20:30N 38°57' W 010°07'1515.8
2014-Jul-22 19:33N 39°12' W 010°07'1616.1
2014-Jul-22 18:33N 39°28' W 010°07'1715.9
2014-Jul-22 17:27N 39°45' W 010°07'1415.8
2014-Jul-22 16:33N 39°60' W 010°07'1616.1
2014-Jul-22 15:33N 40°16' W 010°08'  
Track history (hours):
 
Tides and Currents Weather Stations Pressure Air Temp Water Temp Dewpoint Dewpoint Depression Visibility Wind Speed Wind Dir Waves Ship Positions

Grande Portogallo

Last reported at 2014-Jul-31 18:31 UTC. Time now 2014-Aug-01 03:55 UTC.
Position N 36°28' E 014°41'.

Length 176 m; draft 7.8 m.

Type: Cargo ship. MMSI: 247065500.

Date/timePositionNaut miles runAvg speedWind from/ knotsBaromVisibWave heightAir tempDewpointWater temp
2014-Jul-31 18:31N 36°28' E 014°41'1616.5
2014-Jul-31 17:33N 36°29' E 014°21'1716.6
2014-Jul-31 16:33N 36°33' E 014°01'1716.7
2014-Jul-31 15:33N 36°37' E 013°41'1716.6
2014-Jul-31 14:33N 36°41' E 013°21'1616.4
2014-Jul-31 13:33N 36°45' E 013°01'224 5.9
2014-Jul-29 23:22N 40°20' E 014°23'1215.2
2014-Jul-29 22:34N 40°29' E 014°34'5 0.5
2014-Jul-29 11:33N 40°32' E 014°28'1515.1
2014-Jul-29 10:33N 40°29' E 014°08'1716.7
2014-Jul-29 09:33N 40°39' E 013°50'1716.7
2014-Jul-29 08:33N 40°49' E 013°33'18210.0
2014-Jul-28 14:16N 42°51' E 010°31'1115.3
2014-Jul-28 13:33N 43°00' E 010°24'1616.0
2014-Jul-28 12:33N 43°16' E 010°17'1615.6
2014-Jul-28 11:33N 43°31' E 010°13'6 5.5
2014-Jul-28 10:32N 43°35' E 010°19'0 0.0
2014-Jul-28 09:32N 43°35' E 010°19'0 0.0
2014-Jul-28 08:29N 43°35' E 010°19'0 0.0
2014-Jul-28 07:32N 43°35' E 010°19'0 0.0
2014-Jul-28 06:32N 43°35' E 010°19'0 0.0
2014-Jul-28 05:29N 43°35' E 010°19'0 0.0
2014-Jul-28 04:32N 43°35' E 010°19'0 0.0
2014-Jul-28 03:32N 43°35' E 010°19'0 0.0
2014-Jul-28 02:33N 43°35' E 010°19'0 0.0
2014-Jul-28 01:32N 43°35' E 010°19'0 0.0
2014-Jul-28 00:32N 43°35' E 010°19'0 0.0
2014-Jul-27 23:32N 43°35' E 010°19'0 0.0
2014-Jul-27 22:32N 43°35' E 010°19'0 0.0
2014-Jul-27 21:32N 43°35' E 010°19'0 0.0
2014-Jul-27 20:32N 43°35' E 010°19'0 0.0
2014-Jul-27 19:32N 43°35' E 010°19'0 0.0
2014-Jul-27 18:32N 43°35' E 010°19'0 0.0
2014-Jul-27 17:32N 43°35' E 010°19'0 0.0
2014-Jul-27 16:33N 43°35' E 010°19'5 4.5
2014-Jul-27 15:33N 43°31' E 010°15'1515.2
2014-Jul-27 14:34N 43°21' E 009°60'1616.3
2014-Jul-27 13:33N 43°17' E 009°38'1615.7
2014-Jul-27 12:34N 43°15' E 009°17'2015.6
2014-Jul-27 11:16N 43°11' E 008°49'6215.8
2014-Jul-27 07:21N 43°00' E 007°26'1316.0
2014-Jul-27 06:34N 42°58' E 007°09'1716.7
2014-Jul-27 05:33N 42°56' E 006°46'1616.3
2014-Jul-27 04:34N 42°53' E 006°24'1616.4
2014-Jul-27 03:33N 42°53' E 006°02'1616.4
2014-Jul-27 02:33N 42°56' E 005°40'1716.0
2014-Jul-27 01:31N 43°02' E 005°19'1515.5
2014-Jul-27 00:33N 43°11' E 005°02'1313.3
2014-Jul-26 23:33N 43°23' E 004°55'3 3.1
2014-Jul-26 22:28N 43°24' E 004°51'0 0.0
2014-Jul-26 21:28N 43°24' E 004°51'0 0.0
2014-Jul-26 20:28N 43°24' E 004°51'0 0.0
2014-Jul-26 19:31N 43°24' E 004°51'0 0.0
2014-Jul-26 18:28N 43°24' E 004°51'0 0.0
2014-Jul-26 17:28N 43°24' E 004°51'0 0.0
2014-Jul-26 16:31N 43°24' E 004°51'3 3.0
2014-Jul-26 15:34N 43°24' E 004°55'1010.2
2014-Jul-26 14:33N 43°15' E 005°01'1414.3
2014-Jul-26 13:33N 43°02' E 004°52'3616.3
2014-Jul-26 11:19N 42°36' E 004°18'3115.4
2014-Jul-26 09:20N 42°12' E 003°51'1114.7
2014-Jul-26 08:33N 42°04' E 003°40'1514.8
2014-Jul-26 07:32N 41°53' E 003°27'1717.1
2014-Jul-26 06:33N 41°41' E 003°11'1716.9
2014-Jul-26 05:33N 41°30' E 002°53'1616.3
2014-Jul-26 04:34N 41°20' E 002°37'1716.6
2014-Jul-26 03:33N 41°09' E 002°20'1615.7
2014-Jul-26 02:33N 40°59' E 002°03'1615.8
2014-Jul-26 01:33N 40°49' E 001°48'1615.9
2014-Jul-26 00:33N 40°39' E 001°32'1615.9
2014-Jul-25 23:33N 40°28' E 001°16'1615.7
2014-Jul-25 22:33N 40°18' E 001°00'1615.7
2014-Jul-25 21:33N 40°08' E 000°44'1615.6
2014-Jul-25 20:33N 39°57' E 000°30'3615.8
2014-Jul-25 18:18N 39°33' W 000°04'1215.7
2014-Jul-25 17:34N 39°26' W 000°16'2 2.0
2014-Jul-25 16:31N 39°26' W 000°18'0 0.0
2014-Jul-25 15:31N 39°27' W 000°18'0 0.0
2014-Jul-25 14:31N 39°27' W 000°18'0 0.0
2014-Jul-25 13:31N 39°26' W 000°18'0 0.0
2014-Jul-25 12:31N 39°26' W 000°18'0 0.0
2014-Jul-25 11:31N 39°26' W 000°18'0 0.0
2014-Jul-25 10:34N 39°26' W 000°18'8311.5
2014-Jul-25 03:17N 38°04' W 000°03'1114.6
2014-Jul-25 02:33N 37°56' W 000°11'1514.9
2014-Jul-25 01:33N 37°43' W 000°22'1514.7
2014-Jul-25 00:34N 37°31' W 000°33'1615.1
2014-Jul-24 23:32N 37°21' W 000°47'1515.2
2014-Jul-24 22:33N 37°11' W 001°01'1615.4
2014-Jul-24 21:33N 37°01' W 001°15'1515.3
2014-Jul-24 20:32N 36°50' W 001°30'5015.2
2014-Jul-24 17:15N 36°21' W 002°20'14616.8
2014-Jul-24 08:32N 35°59' W 005°19'8216.4
2014-Jul-24 03:33N 36°04' W 006°60'2215.9
2014-Jul-24 02:11N 36°10' W 007°26'1016.4
2014-Jul-24 01:33N 36°12' W 007°38'1616.1
2014-Jul-24 00:33N 36°17' W 007°57'1616.2
2014-Jul-23 23:33N 36°21' W 008°17'1616.0
2014-Jul-23 22:33N 36°25' W 008°36'1615.9
2014-Jul-23 21:33N 36°29' W 008°55'1615.9
2014-Jul-23 20:33N 36°33' W 009°14'1615.7
2014-Jul-23 19:33N 36°43' W 009°29'1615.6
2014-Jul-23 18:33N 36°58' W 009°35'1615.9
2014-Jul-23 17:33N 37°13' W 009°30'1716.3
2014-Jul-23 16:32N 37°29' W 009°24'1616.3
2014-Jul-23 15:33N 37°45' W 009°17'1616.0
2014-Jul-23 14:33N 37°60' W 009°11'1616.4
2014-Jul-23 13:33N 38°15' W 009°05'1414.1
2014-Jul-23 12:33N 38°28' W 008°57'5 4.4
2014-Jul-23 11:28N 38°31' W 008°52'0 0.0
2014-Jul-23 10:31N 38°31' W 008°52'0 0.0
2014-Jul-23 09:31N 38°31' W 008°52'0 0.0
2014-Jul-23 08:22N 38°31' W 008°52'0 0.0
2014-Jul-23 07:31N 38°31' W 008°52'0 0.0
2014-Jul-23 06:31N 38°31' W 008°52'0 0.0
2014-Jul-23 05:28N 38°31' W 008°52'0 0.0
2014-Jul-23 04:31N 38°31' W 008°52'0 0.0
2014-Jul-23 03:25N 38°31' W 008°52'2 1.9
2014-Jul-23 02:33N 38°31' W 008°54'10 9.7
2014-Jul-23 01:33N 38°24' W 009°03'1010.4
2014-Jul-23 00:33N 38°20' W 009°15'1515.3
2014-Jul-22 23:33N 38°26' W 009°33'1515.3
2014-Jul-22 22:33N 38°31' W 009°52'1514.2
2014-Jul-22 21:30N 38°41' W 010°06'1615.9
2014-Jul-22 20:30N 38°57' W 010°07'1515.8
2014-Jul-22 19:33N 39°12' W 010°07'1616.1
2014-Jul-22 18:33N 39°28' W 010°07'1715.9
2014-Jul-22 17:27N 39°45' W 010°07'1415.8
2014-Jul-22 16:33N 39°60' W 010°07'1616.1
2014-Jul-22 15:33N 40°16' W 010°08'  

Dump ship's entire track history